createdAt,value
2018-10-01T00:04:29.375Z,8.33
2018-10-01T00:09:32.704Z,8.29
2018-10-01T00:14:36.212Z,8.28
2018-10-01T00:19:44.840Z,8.24
2018-10-01T00:24:48.193Z,8.22
2018-10-01T00:29:52.005Z,8.21
2018-10-01T00:34:56.066Z,8.16
2018-10-01T00:39:59.462Z,8.09
2018-10-01T00:45:02.941Z,8.10
2018-10-01T00:50:06.364Z,8.01
2018-10-01T00:55:09.745Z,7.81
2018-10-01T01:00:13.204Z,7.76
2018-10-01T01:05:16.512Z,7.67
2018-10-01T01:10:19.873Z,7.63
2018-10-01T01:15:23.172Z,7.63
2018-10-01T01:20:26.504Z,7.69
2018-10-01T01:25:29.829Z,7.69
2018-10-01T01:30:33.143Z,7.79
2018-10-01T01:35:36.490Z,7.80
2018-10-01T01:40:39.785Z,7.72
2018-10-01T01:45:43.094Z,7.77
2018-10-01T01:50:46.396Z,7.91
2018-10-01T01:55:49.725Z,7.92
2018-10-01T02:00:53.045Z,7.98
2018-10-01T02:05:56.388Z,7.95
2018-10-01T02:10:59.706Z,7.99
2018-10-01T02:16:03.097Z,8.02
2018-10-01T02:21:06.457Z,8.11
2018-10-01T02:26:09.768Z,8.17
2018-10-01T02:31:13.074Z,8.26
2018-10-01T02:36:16.407Z,8.27
2018-10-01T02:41:19.760Z,8.32
2018-10-01T02:46:23.099Z,8.38
2018-10-01T02:51:26.418Z,8.44
2018-10-01T02:56:29.732Z,8.35
2018-10-01T03:01:33.084Z,8.43
2018-10-01T03:06:36.405Z,8.42
2018-10-01T03:11:39.892Z,8.37
2018-10-01T03:16:43.260Z,8.22
2018-10-01T03:21:46.569Z,8.15
2018-10-01T03:26:49.891Z,8.08
2018-10-01T03:31:53.204Z,8.04
2018-10-01T03:36:56.601Z,7.99
2018-10-01T03:41:59.928Z,7.97
2018-10-01T03:47:03.255Z,7.90
2018-10-01T03:52:06.573Z,7.85
2018-10-01T03:57:10.200Z,7.76
2018-10-01T04:02:13.490Z,7.66
2018-10-01T04:07:16.806Z,7.62
2018-10-01T04:12:20.126Z,7.50
2018-10-01T04:17:23.449Z,7.48
2018-10-01T04:22:32.160Z,7.47
2018-10-01T04:27:35.900Z,7.51
2018-10-01T04:32:39.246Z,7.48
2018-10-01T04:37:42.571Z,7.42
2018-10-01T04:42:45.917Z,7.38
2018-10-01T04:47:49.227Z,7.34
2018-10-01T04:52:52.540Z,7.31
2018-10-01T04:57:55.852Z,7.29
2018-10-01T05:02:59.164Z,7.25
2018-10-01T05:08:02.469Z,7.22
2018-10-01T05:13:05.782Z,7.17
2018-10-01T05:18:09.111Z,7.17
2018-10-01T05:23:12.424Z,7.09
2018-10-01T05:28:15.861Z,7.13
2018-10-01T05:33:19.195Z,7.18
2018-10-01T05:38:22.508Z,7.17
2018-10-01T05:43:25.852Z,7.34
2018-10-01T05:48:29.159Z,7.47
2018-10-01T05:53:33.335Z,7.56
2018-10-01T05:58:36.660Z,7.78
2018-10-01T06:03:39.980Z,7.95
2018-10-01T06:08:43.344Z,8.14
2018-10-01T06:13:46.633Z,8.22
2018-10-01T06:18:49.936Z,8.22
2018-10-01T06:23:53.248Z,8.27
2018-10-01T06:28:56.544Z,8.44
2018-10-01T06:33:59.816Z,8.62
2018-10-01T06:39:03.113Z,8.86
2018-10-01T06:44:06.416Z,9.13
2018-10-01T06:49:09.693Z,9.30
2018-10-01T06:54:12.977Z,9.34
2018-10-01T06:59:16.279Z,9.40
2018-10-01T07:04:19.562Z,9.45
2018-10-01T07:09:22.841Z,9.57
2018-10-01T07:14:26.113Z,9.75
2018-10-01T07:19:29.414Z,9.83
2018-10-01T07:24:32.704Z,9.87
2018-10-01T07:29:35.984Z,9.97
2018-10-01T07:34:39.332Z,10.12
2018-10-01T07:39:42.617Z,10.24
2018-10-01T07:44:45.969Z,10.35
2018-10-01T07:49:49.208Z,10.60
2018-10-01T07:54:52.497Z,10.82
2018-10-01T07:59:55.952Z,11.04
2018-10-01T08:04:59.125Z,11.08
2018-10-01T08:10:02.415Z,11.17
2018-10-01T08:15:06.076Z,11.26
2018-10-01T08:20:09.456Z,11.32
2018-10-01T08:25:12.709Z,11.48
2018-10-01T08:30:16.005Z,11.83
2018-10-01T08:35:19.286Z,12.03
2018-10-01T08:40:22.589Z,12.04
2018-10-01T08:45:25.875Z,12.10
2018-10-01T08:50:34.615Z,12.20
2018-10-01T08:55:37.897Z,12.25
2018-10-01T09:00:41.187Z,12.40
2018-10-01T09:05:44.456Z,12.33
2018-10-01T09:10:47.742Z,12.28
2018-10-01T09:15:51.029Z,12.33
2018-10-01T09:20:54.332Z,12.54
2018-10-01T09:25:57.667Z,12.71
2018-10-01T09:31:01.033Z,12.87
2018-10-01T09:36:04.288Z,12.91
2018-10-01T09:41:07.596Z,12.97
2018-10-01T09:46:10.991Z,13.13
2018-10-01T09:51:14.296Z,13.16
2018-10-01T09:56:17.641Z,13.18
2018-10-01T10:01:20.911Z,13.23
2018-10-01T10:06:24.213Z,13.29
2018-10-01T10:11:27.535Z,13.40
2018-10-01T10:16:30.858Z,13.50
2018-10-01T10:21:34.100Z,13.84
2018-10-01T10:26:37.465Z,14.09
2018-10-01T10:31:40.703Z,14.22
2018-10-01T10:36:43.980Z,14.30
2018-10-01T10:41:47.609Z,14.39
2018-10-01T10:46:50.808Z,14.29
2018-10-01T10:51:55.148Z,14.60
2018-10-01T10:56:58.469Z,14.32
2018-10-01T11:02:02.259Z,14.15
2018-10-01T11:07:05.585Z,13.37
2018-10-01T11:12:08.901Z,12.65
2018-10-01T11:17:12.184Z,12.28
2018-10-01T11:22:15.486Z,12.30
2018-10-01T11:27:18.928Z,12.49
2018-10-01T11:32:22.096Z,12.60
2018-10-01T11:37:25.380Z,12.58
2018-10-01T11:42:28.692Z,12.61
2018-10-01T11:47:31.975Z,12.32
2018-10-01T11:52:35.251Z,12.16
2018-10-01T11:57:38.594Z,12.16
2018-10-01T12:02:41.865Z,12.18
2018-10-01T12:07:45.349Z,11.95
2018-10-01T12:12:48.672Z,12.09
2018-10-01T12:17:51.944Z,12.49
2018-10-01T12:22:55.220Z,13.07
2018-10-01T12:27:58.497Z,13.13
2018-10-01T12:33:01.799Z,13.01
2018-10-01T12:38:05.082Z,12.94
2018-10-01T12:43:08.388Z,12.89
2018-10-01T12:48:11.686Z,12.66
2018-10-01T12:53:15.143Z,12.63
2018-10-01T12:58:18.453Z,12.77
2018-10-01T13:03:28.100Z,12.79
2018-10-01T13:08:31.403Z,12.54
2018-10-01T13:13:34.688Z,12.41
2018-10-01T13:18:38.078Z,12.39
2018-10-01T13:23:41.353Z,12.34
2018-10-01T13:28:44.641Z,12.37
2018-10-01T13:33:47.924Z,12.39
2018-10-01T13:38:51.422Z,12.28
2018-10-01T13:43:54.798Z,12.35
2018-10-01T13:48:58.114Z,12.33
2018-10-01T13:54:01.590Z,12.29
2018-10-01T13:59:04.932Z,12.34
2018-10-01T14:04:08.789Z,12.33
2018-10-01T14:09:12.585Z,12.24
2018-10-01T14:14:15.888Z,12.11
2018-10-01T14:19:19.380Z,12.00
2018-10-01T14:24:22.549Z,11.97
2018-10-01T14:29:25.901Z,11.95
2018-10-01T14:34:29.240Z,11.94
2018-10-01T14:39:32.596Z,11.95
2018-10-01T14:44:35.852Z,11.97
2018-10-01T14:49:39.164Z,12.03
2018-10-01T14:54:43.101Z,12.06
2018-10-01T14:59:46.408Z,12.06
2018-10-01T15:04:49.782Z,12.01
2018-10-01T15:09:53.056Z,12.05
2018-10-01T15:14:56.343Z,12.13
2018-10-01T15:19:59.729Z,12.23
2018-10-01T15:25:03.906Z,12.43
2018-10-01T15:30:07.445Z,12.81
2018-10-01T15:35:10.744Z,12.62
2018-10-01T15:40:14.231Z,12.42
2018-10-01T15:45:17.543Z,12.30
2018-10-01T15:50:20.832Z,12.22
2018-10-01T15:55:24.117Z,12.19
2018-10-01T16:00:27.425Z,12.10
2018-10-01T16:05:30.787Z,12.17
2018-10-01T16:10:34.111Z,12.27
2018-10-01T16:15:37.425Z,12.23
2018-10-01T16:20:40.704Z,12.11
2018-10-01T16:25:44.022Z,11.89
2018-10-01T16:30:47.312Z,11.66
2018-10-01T16:35:50.621Z,11.49
2018-10-01T16:40:53.949Z,11.36
2018-10-01T16:45:57.591Z,11.23
2018-10-01T16:51:00.905Z,11.17
2018-10-01T16:56:04.339Z,11.13
2018-10-01T17:01:07.711Z,11.15
2018-10-01T17:06:11.023Z,11.22
2018-10-01T17:11:14.324Z,11.19
2018-10-01T17:16:17.631Z,11.10
2018-10-01T17:21:20.997Z,11.06
2018-10-01T17:26:24.343Z,11.02
2018-10-01T17:31:27.642Z,10.98
2018-10-01T17:36:31.001Z,10.96
2018-10-01T17:41:34.311Z,10.93
2018-10-01T17:46:37.638Z,10.91
2018-10-01T17:51:41.555Z,10.89
2018-10-01T17:56:44.880Z,10.80
2018-10-01T18:01:48.163Z,10.72
2018-10-01T18:06:51.473Z,10.58
2018-10-01T18:11:54.944Z,10.53
2018-10-01T18:16:58.464Z,10.52
2018-10-01T18:22:01.926Z,10.54
2018-10-01T18:27:05.437Z,10.55
2018-10-01T18:32:08.957Z,10.55
2018-10-01T18:37:12.409Z,10.50
2018-10-01T18:42:15.742Z,10.53
2018-10-01T18:47:19.178Z,10.55
2018-10-01T18:52:22.471Z,10.57
2018-10-01T18:57:25.877Z,10.58
2018-10-01T19:02:29.241Z,10.51
2018-10-01T19:07:32.728Z,10.42
2018-10-01T19:12:36.049Z,10.35
2018-10-01T19:17:39.414Z,10.22
2018-10-01T19:22:42.804Z,10.10
2018-10-01T19:27:46.104Z,9.99
2018-10-01T19:32:49.405Z,9.88
2018-10-01T19:37:52.796Z,9.79
2018-10-01T19:42:56.121Z,9.82
2018-10-01T19:47:59.453Z,9.66
2018-10-01T19:53:02.826Z,9.51
2018-10-01T19:58:06.189Z,9.48
2018-10-01T20:03:09.553Z,9.54
2018-10-01T20:08:12.872Z,9.59
2018-10-01T20:13:16.221Z,9.61
2018-10-01T20:18:19.586Z,9.55
2018-10-01T20:23:23.155Z,9.52
2018-10-01T20:28:26.679Z,9.58
2018-10-01T20:33:29.935Z,9.58
2018-10-01T20:38:33.261Z,9.62
2018-10-01T20:43:36.576Z,9.60
2018-10-01T20:48:39.980Z,9.57
2018-10-01T20:53:43.396Z,9.57
2018-10-01T20:58:46.690Z,9.47
2018-10-01T21:03:49.968Z,9.26
2018-10-01T21:08:53.296Z,9.10
2018-10-01T21:13:56.611Z,9.01
2018-10-01T21:18:59.960Z,8.91
2018-10-01T21:24:03.388Z,8.83
2018-10-01T21:29:06.812Z,8.79
2018-10-01T21:34:10.200Z,8.85
2018-10-01T21:39:23.230Z,8.75
2018-10-01T21:44:26.564Z,8.70
2018-10-01T21:49:29.888Z,8.74
2018-10-01T21:54:33.217Z,8.68
2018-10-01T21:59:36.540Z,8.60
2018-10-01T22:04:39.868Z,8.58
2018-10-01T22:09:43.182Z,8.59
2018-10-01T22:14:46.490Z,8.46
2018-10-01T22:19:49.809Z,8.39
2018-10-01T22:24:53.204Z,8.26
2018-10-01T22:29:56.576Z,8.22
2018-10-01T22:34:59.933Z,8.18
2018-10-01T22:40:03.513Z,8.17
2018-10-01T22:45:07.041Z,8.16
2018-10-01T22:50:10.393Z,8.16
2018-10-01T22:55:13.877Z,8.11
2018-10-01T23:00:17.196Z,8.00
2018-10-01T23:05:20.512Z,8.01
2018-10-01T23:10:23.812Z,7.92
2018-10-01T23:15:27.119Z,7.86
2018-10-01T23:20:30.414Z,7.75
2018-10-01T23:25:33.712Z,7.68
2018-10-01T23:30:37.040Z,7.61
2018-10-01T23:35:40.383Z,7.58
2018-10-01T23:40:43.919Z,7.55
2018-10-01T23:45:47.235Z,7.54
2018-10-01T23:50:50.531Z,7.44
2018-10-01T23:55:53.829Z,7.34
